Home > Products > Valid Products > TAF

000
FTUS41 KCAR 291700
TAFBGR
TAF
KBGR 291720Z 2918/3018 35008KT P6SM SKC
     FM292100 28004KT P6SM SKC
     FM301300 21008KT P6SM SCT250
     FM301600 20012KT P6SM BKN250=



000
FTUS41 KCAR 291700
TAFBHB
TAF
KBHB 291720Z 2918/3018 35008KT P6SM SKC
     FM301000 21004KT P6SM FEW250
     FM301300 21010KT P6SM SCT250
      AMD LTD TO CLD VIS AND WIND=



000
FTUS41 KCAR 291700
TAFCAR
TAF
KCAR 291720Z 2918/3018 34005KT P6SM SKC
     FM292100 27004KT P6SM SKC
     FM301400 20008KT P6SM BKN250=



000
FTUS41 KCAR 291700
TAFPQI
TAF
KPQI 291720Z 2918/3018 34008G15KT P6SM SKC
     FM292100 27004KT P6SM SKC
     FM301500 20010KT P6SM BKN250
      AMD LTD TO CLD VIS AND WIND=



000
FTUS41 KCAR 291700
TAFHUL
TAF
KHUL 291720Z 2918/3018 35009KT P6SM SKC
     FM292100 28005KT P6SM SKC
     FM301400 21010KT P6SM SCT250=



000
FTUS41 KCAR 291100
TAFBGR
TAF
KBGR 291120Z 2912/3012 36010KT P6SM SKC
      TEMPO 2912/2913 BKN025
     FM300000 VRB03KT P6SM SKC=



000
FTUS41 KCAR 291100
TAFPQI
TAF
KPQI 291120Z 2912/3012 35006KT P6SM SKC
     FM300600 VRB03KT P6SM BKN200
      AMD LTD TO CLD VIS AND WIND=



000
FTUS41 KCAR 291100
TAFCAR
TAF
KCAR 291120Z 2912/3012 35008KT P6SM SKC
     FM300600 17004KT P6SM BKN200=



000
FTUS41 KCAR 291100
TAFHUL
TAF
KHUL 291120Z 2912/3012 36008KT P6SM SKC
     FM300500 00000KT P6SM SCT200=



000
FTUS41 KCAR 291100
TAFBHB
TAF
KBHB 291120Z 2912/3012 34012KT P6SM SKC
      TEMPO 2912/2913 BKN022
     FM300000 VRB03KT P6SM SKC
      AMD LTD TO CLD VIS AND WIND=



000
FTUS41 KCAR 290800 AAA
TAFBHB
TAF AMD
KBHB 290835Z 2909/3006 34010KT P6SM BKN015
     FM291100 36010G18KT P6SM SKC
     FM300000 VRB03KT P6SM SKC
      AMD LTD TO CLD VIS AND WIND=



000
FTUS41 KCAR 290800 AAA
TAFBGR
TAF AMD
KBGR 290834Z 2909/3006 33010KT P6SM OVC025
     FM291100 35010G16KT P6SM SKC
     FM300000 VRB03KT P6SM SKC=



000
FTUS41 KCAR 290500 RRA
TAFHUL
TAF
KHUL 290554Z 2906/3006 36008KT P6SM SKC
      TEMPO 2906/2907 BKN025
     FM300000 00000KT P6SM SCT250=



000
FTUS41 KCAR 290500 RRA
TAFPQI
TAF
KPQI 290554Z 2906/3006 35008KT P6SM SKC
      TEMPO 2906/2907 SCT020
     FM300000 00000KT P6SM SCT250
      AMD LTD TO CLD VIS AND WIND=



000
FTUS41 KCAR 290500 RRA
TAFBGR
TAF
KBGR 290554Z 2906/3006 33010KT P6SM FEW035
      TEMPO 2906/2908 OVC025
     FM291400 35010G16KT P6SM SKC
     FM300000 VRB03KT P6SM SKC=



000
FTUS41 KCAR 290500 RRA
TAFCAR
TAF
KCAR 290554Z 2906/3006 35008KT P6SM SKC
      TEMPO 2906/2907 SCT015
     FM300000 VRB03KT P6SM SCT250=



000
FTUS41 KCAR 290500 RRA
TAFBHB
TAF
KBHB 290554Z 2906/3006 34010KT P6SM FEW035
      TEMPO 2906/2908 BKN025
     FM291400 36010G18KT P6SM SKC
     FM300000 VRB03KT P6SM SKC
      AMD LTD TO CLD VIS AND WIND=



000
FTUS41 KCAR 290200 AAA
TAFHUL
TAF AMD
KHUL 290258Z 2903/2924 35009KT P6SM -SHRA OVC025
      TEMPO 2903/2905 2SM SHRA BR BKN005
     FM290700 35007KT P6SM FEW050=



000
FTUS41 KCAR 290100 AAB
TAFPQI
TAF AMD
KPQI 290138Z 2902/2924 35012KT 6SM -SHRA OVC015
     FM290430 35008KT P6SM SCT030
     FM290800 34006KT P6SM FEW050
      AMD LTD TO CLD VIS AND WIND=



000
FTUS41 KCAR 290100 AAB
TAFCAR
TAF AMD
KCAR 290138Z 2902/2924 34010KT 6SM -SHRA OVC013
      TEMPO 2902/2904 BKN009
     FM290400 35008KT P6SM SCT030
     FM290700 34006KT P6SM FEW050=



000
FTUS41 KCAR 290000 AAA
TAFPQI
TAF AMD
KPQI 290045Z 2901/2924 35010KT 6SM -SHRA OVC017
     FM290600 35008KT P6SM SCT030
     FM290800 34006KT P6SM FEW050
      AMD LTD TO CLD VIS AND WIND=



000
FTUS41 KCAR 290000 AAA
TAFCAR
TAF AMD
KCAR 290045Z 2901/2924 34010KT 6SM -SHRA OVC013
     FM290530 35008KT P6SM SCT030
     FM290700 34006KT P6SM FEW050=



000
FTUS41 KCAR 282300
TAFBGR
TAF
KBGR 282320Z 2900/2924 33010KT P6SM SCT070
     FM291400 35011G18KT P6SM SKC=



000
FTUS41 KCAR 282300
TAFCAR
TAF
KCAR 282320Z 2900/2924 34014G20KT P6SM OVC028
     FM290200 34010KT 6SM -SHRA OVC020
     FM290530 35008KT P6SM SCT030
     FM290700 34006KT P6SM FEW050=



000
FTUS41 KCAR 282300
TAFHUL
TAF
KHUL 282320Z 2900/2924 34012G18KT P6SM OVC035
     FM290100 35010G16KT P6SM OVC030
     FM290300 35009KT P6SM -SHRA OVC025
     FM290700 35007KT P6SM FEW050=



000
FTUS41 KCAR 282300
TAFBHB
TAF
KBHB 282320Z 2900/2924 34010KT P6SM SCT070
     FM291400 36011G18KT P6SM SKC
      AMD LTD TO CLD VIS AND WIND=



000
FTUS41 KCAR 282300
TAFPQI
TAF
KPQI 282320Z 2900/2924 34012G18KT P6SM OVC028
     FM290230 34010KT 6SM -SHRA OVC020
     FM290600 35008KT P6SM SCT030
     FM290800 34006KT P6SM FEW050
      AMD LTD TO CLD VIS AND WIND=



000
FTUS41 KCAR 282200 AAA
TAFCAR
TAF AMD
KCAR 282229Z 2822/2918 35012KT P6SM OVC030
     FM290400 34008KT P6SM BKN040
     FM290900 35006KT P6SM SCT250=



000
FTUS41 KCAR 281700
TAFHUL
TAF
KHUL 281736Z 2818/2918 34014KT P6SM SCT090
     FM290200 35008KT P6SM BKN030
     FM290700 35006KT P6SM BKN050
     FM291700 36010KT P6SM FEW250=



000
FTUS41 KCAR 281700
TAFBGR
TAF
KBGR 281736Z 2818/2918 34010KT P6SM SCT250
     FM291500 36009KT P6SM FEW250=



000
FTUS41 KCAR 281700
TAFPQI
TAF
KPQI 281736Z 2818/2918 36010KT P6SM BKN090
     FM282200 34009KT P6SM BKN030
     FM290600 34007KT P6SM BKN040
     FM290900 35007KT P6SM SCT120
      AMD LTD TO CLD VIS AND WIND=



000
FTUS41 KCAR 281700
TAFBHB
TAF
KBHB 281736Z 2818/2918 33011G20KT P6SM SCT250
     FM290600 34011KT P6SM BKN020
     FM290700 34011KT P6SM BKN050
      AMD LTD TO CLD VIS AND WIND=



000
FTUS41 KCAR 281700
TAFCAR
TAF
KCAR 281736Z 2818/2918 33010G20KT P6SM SCT050
     FM290200 35008KT P6SM OVC030
     FM290400 34008KT P6SM BKN040
     FM290900 35006KT P6SM SCT250=



000
FTUS41 KCAR 281100
TAFBGR
TAF
KBGR 281120Z 2812/2912 33005KT P6SM SCT200
     FM281700 34010G18KT P6SM SCT100 BKN200=



000
FTUS41 KCAR 281100
TAFCAR
TAF
KCAR 281120Z 2812/2912 32003KT P6SM BKN040
     FM281800 32014G22KT P6SM VCSH SCT025 BKN035 OVC050
     FM290000 32008KT P6SM SCT035 OVC050
     FM290700 34004KT P6SM BKN100=



000
FTUS41 KCAR 281100
TAFHUL
TAF
KHUL 281120Z 2812/2912 00000KT P6SM SCT120
     FM281800 32010G18KT P6SM BKN040 OVC070
     FM290000 35006KT P6SM BKN050=



000
FTUS41 KCAR 281100
TAFPQI
TAF
KPQI 281120Z 2812/2912 28003KT P6SM BKN060
     FM281400 32009KT P6SM BKN040
     FM281800 31013G22KT P6SM VCSH BKN035 OVC060
     FM290000 35008KT P6SM BKN040
      AMD LTD TO CLD VIS AND WIND=



000
FTUS41 KCAR 281100
TAFBHB
TAF
KBHB 281120Z 2812/2912 33004KT P6SM BKN080
     FM281500 34012KT P6SM SCT100 BKN250
      AMD LTD TO CLD VIS AND WIND=



000
FTUS41 KCAR 280500
TAFBHB
TAF
KBHB 280520Z 2806/2906 00000KT P6SM VCSH BKN050 OVC080
     FM280900 VRB03KT P6SM BKN035
     FM281100 34004KT P6SM BKN050
     FM281500 34012KT P6SM SCT100 BKN250
      AMD LTD TO CLD VIS AND WIND=



000
FTUS41 KCAR 280500
TAFCAR
TAF
KCAR 280520Z 2806/2906 30003KT P6SM OVC050
     FM281200 32007KT P6SM BKN035
     FM281800 32014G22KT P6SM VCSH SCT025 BKN035 OVC050
     FM290000 32008KT P6SM SCT035 OVC050=



000
FTUS41 KCAR 280500
TAFBGR
TAF
KBGR 280520Z 2806/2906 VRB03KT P6SM VCSH BKN050 OVC080
     FM280900 32005KT P6SM BKN080
     FM281700 34010G18KT P6SM SCT100 BKN200=



000
FTUS41 KCAR 280500
TAFHUL
TAF
KHUL 280520Z 2806/2906 00000KT P6SM BKN060
      TEMPO 2806/2808 -SHRA
     FM281800 32010G18KT P6SM BKN040 OVC070
     FM290000 35006KT P6SM BKN050=



000
FTUS41 KCAR 280500
TAFPQI
TAF
KPQI 280520Z 2806/2906 00000KT P6SM OVC060
      TEMPO 2806/2807 -SHRA
     FM281300 32007KT P6SM BKN040
     FM281800 31013G22KT P6SM VCSH BKN035 OVC060
     FM290000 35008KT P6SM BKN040
      AMD LTD TO CLD VIS AND WIND=



000
FTUS41 KCAR 272300
TAFCAR
TAF
KCAR 272334Z 2800/2824 32006KT P6SM SCT050
     FM280300 32006KT P6SM VCSH OVC040
     FM280800 32010KT P6SM VCSH OVC025
     FM281500 34012G20KT P6SM VCSH BKN040=



000
FTUS41 KCAR 272300
TAFPQI
TAF
KPQI 272334Z 2800/2824 32006KT P6SM SCT050
     FM280300 32006KT P6SM VCSH OVC040
     FM280800 32010KT P6SM VCSH OVC025
     FM281500 34012G20KT P6SM VCSH BKN040
      AMD LTD TO CLD VIS AND WIND=



000
FTUS41 KCAR 272300
TAFBGR
TAF
KBGR 272334Z 2800/2824 32006KT P6SM SCT060
     FM280600 34006KT P6SM VCSH OVC040
     FM281000 34010KT P6SM BKN040
     FM281500 34012G20KT P6SM BKN050=



000
FTUS41 KCAR 272300
TAFHUL
TAF
KHUL 272334Z 2800/2824 32006KT P6SM SCT050
     FM280500 32006KT P6SM VCSH OVC040
     FM281500 34012G20KT P6SM VCSH BKN040=



000
FTUS41 KCAR 272300
TAFBHB
TAF
KBHB 272334Z 2800/2824 26006KT P6SM SCT060
     FM280600 33006KT P6SM VCSH OVC040
     FM281000 34010KT P6SM BKN040
     FM281500 34012G20KT P6SM BKN050
      AMD LTD TO CLD VIS AND WIND=



000
FTUS41 KCAR 272200 AAA
TAFHUL
TAF AMD
KHUL 272209Z 2722/2818 30008KT P6SM SCT060
     FM281500 33008KT P6SM BKN050=



000
FTUS41 KCAR 271700
TAFCAR
TAF
KCAR 271731Z 2718/2818 35009KT P6SM BKN050
     FM272000 28007KT P6SM BKN040
     FM280400 VRB03KT P6SM BKN090
     FM281300 32007KT P6SM OVC060=



000
FTUS41 KCAR 271700
TAFPQI
TAF
KPQI 271731Z 2718/2818 26008KT P6SM BKN070
     FM280000 32005KT P6SM BKN090
     FM281600 31009KT P6SM BKN040
      AMD LTD TO CLD VIS AND WIND=



000
FTUS41 KCAR 271700
TAFBGR
TAF
KBGR 271731Z 2718/2818 23008KT P6SM SCT250
     FM272300 26004KT P6SM SCT250
     FM281700 34008KT P6SM SCT250=



000
FTUS41 KCAR 271700
TAFBHB
TAF
KBHB 271731Z 2718/2818 21008KT P6SM OVC060
     FM272200 22006KT P6SM BKN250
     FM280400 00000KT P6SM BKN110
     FM281200 33006KT P6SM SCT250
      AMD LTD TO CLD VIS AND WIND=



000
FTUS41 KCAR 271700
TAFHUL
TAF
KHUL 271731Z 2718/2818 27015G24KT P6SM SCT090
     FM272300 29004KT P6SM SCT080
     FM281500 33008KT P6SM BKN050=



000
FTUS41 KCAR 271100
TAFPQI
TAF
KPQI 271120Z 2712/2812 23006KT P6SM -SHRA BKN020
     FM271600 24010KT P6SM VCTS BKN050CB
     FM272300 30006KT P6SM BKN050
      AMD LTD TO CLD VIS AND WIND=



000
FTUS41 KCAR 271100
TAFHUL
TAF
KHUL 271120Z 2712/2812 21006KT P6SM BKN025
     FM271400 22008KT P6SM VCTS BKN035CB
     FM272200 28006KT P6SM BKN090=



000
FTUS41 KCAR 271100
TAFCAR
TAF
KCAR 271120Z 2712/2812 23006KT P6SM -SHRA BKN020
     FM271700 24010KT P6SM VCTS BKN050CB
     FM272300 30006KT P6SM BKN035
     FM281000 32008KT P6SM -SHRA BKN025=



000
FTUS41 KCAR 271100
TAFBGR
TAF
KBGR 271120Z 2712/2812 20005KT P6SM FEW250
     FM271800 23009KT 6SM -TSRA BKN050CB
     FM272300 29005KT P6SM SCT250=



000
FTUS41 KCAR 271100
TAFBHB
TAF
KBHB 271120Z 2712/2812 21007KT P6SM SCT250
     FM272000 21009KT P6SM VCTS SCT050CB
     FM280200 VRB03KT 2SM BR SCT003 BKN090
      AMD LTD TO CLD VIS AND WIND=



000
FTUS41 KCAR 271000 AAA
TAFCAR
TAF AMD
KCAR 271020Z 2710/2806 23006KT P6SM -SHRA BKN025
     FM271700 24010KT P6SM VCTS BKN050CB
     FM272300 30006KT P6SM BKN035=



000
FTUS41 KCAR 271000 AAA
TAFCAR
TAF AMD
KCAR 271020Z 2710/2806 23006KT P6SM -SHRA BKN025
     FM271700 24010KT P6SM VCTS BKN050CB
     FM272300 30006KT P6SM BKN035=



000
FTUS41 KCAR 270500 RRA
TAFCAR
TAF
KCAR 270549Z 2706/2806 21005KT P6SM SCT250
     FM271200 23006KT P6SM -SHRA VCTS BKN020CB
     FM271700 24010KT P6SM VCTS BKN050CB
     FM272300 30006KT P6SM BKN035=



000
FTUS41 KCAR 270500 RRA
TAFPQI
TAF
KPQI 270549Z 2706/2806 21006KT P6SM SCT250
     FM271300 23006KT P6SM -SHRA VCTS BKN020CB
     FM271700 24010KT P6SM VCTS BKN050CB
     FM272300 30006KT P6SM BKN050
      AMD LTD TO CLD VIS AND WIND=



000
FTUS41 KCAR 270500 RRA
TAFBGR
TAF
KBGR 270549Z 2706/2806 20005KT P6SM FEW250
     FM271900 23009KT 6SM -TSRA BKN050CB
     FM272330 29005KT P6SM SCT250=



000
FTUS41 KCAR 270500 RRA
TAFHUL
TAF
KHUL 270549Z 2706/2806 21006KT P6SM SCT005
     FM271230 22008KT P6SM SCT050
     FM272200 28006KT P6SM BKN090=



000
FTUS41 KCAR 270500 RRA
TAFBHB
TAF
KBHB 270549Z 2706/2806 21007KT 6SM BR FEW001
     FM271800 21009KT P6SM VCTS SCT050CB
     FM280200 25004KT 2SM BR SCT003 BKN090
      AMD LTD TO CLD VIS AND WIND=



000
FTUS41 KCAR 262300
TAFHUL
TAF
KHUL 262328Z 2700/2724 23006KT P6SM SCT250
     FM271400 25008KT P6SM VCSH BKN045
     FM272100 30008KT P6SM BKN050=



000
FTUS41 KCAR 262300
TAFBHB
TAF
KBHB 262328Z 2700/2724 20008KT P6SM SCT250
     FM270800 22008KT 3SM BR SCT004
     FM271200 22010KT P6SM BKN250
     FM272000 24010KT P6SM VCSH BKN050
      AMD LTD TO CLD VIS AND WIND=



000
FTUS41 KCAR 262300
TAFCAR
TAF
KCAR 262328Z 2700/2724 23008KT P6SM SCT080
     FM271200 25008KT P6SM VCSH BKN040
     FM272100 30010KT P6SM BKN045=



000
FTUS41 KCAR 262300
TAFPQI
TAF
KPQI 262328Z 2700/2724 23008KT P6SM SCT080
     FM271200 25008KT P6SM VCSH BKN040
     FM272100 30010KT P6SM BKN045
      AMD LTD TO CLD VIS AND WIND=



000
FTUS41 KCAR 262300
TAFBGR
TAF
KBGR 262328Z 2700/2724 18008KT P6SM SCT250
     FM271800 24010KT P6SM VCSH BKN050
     FM272200 28008KT P6SM BKN050=



000
FTUS41 KCAR 262200 AAA
TAFCAR
TAF AMD
KCAR 262249Z 2623/2718 22008KT P6SM SCT250
     FM271200 24008KT P6SM BKN045=



000
FTUS41 KCAR 262200 AAA
TAFPQI
TAF AMD
KPQI 262246Z 2623/2718 22008KT P6SM SCT250
     FM271100 22006KT 6SM BR BKN045
     FM271700 24010KT 6SM BR BKN040
      AMD LTD TO CLD VIS AND WIND=



    US Dept of Commerce
    National Oceanic and Atmospheric Administration
    National Weather Service
    1325 East West Highway
    Silver Spring, MD 20910
    Page Author: NWS Internet Services Team
Disclaimer
Information Quality
Credits
Glossary
Privacy Policy
Freedom of Information Act (FOIA)
About Us
Career Opportunities